createdAt,value
2019-04-21T00:00:58.694Z,27.67
2019-04-21T00:03:34.766Z,26.80
2019-04-21T00:06:18.368Z,27.83
2019-04-21T00:08:48.773Z,29.40
2019-04-21T00:11:25.018Z,25.40
2019-04-21T00:13:47.025Z,28.27
2019-04-21T00:16:10.287Z,33.40
2019-04-21T00:18:54.870Z,30.13
2019-04-21T00:21:26.705Z,32.53
2019-04-21T00:24:20.248Z,31.53
2019-04-21T00:26:57.427Z,35.20
2019-04-21T00:29:37.999Z,35.03
2019-04-21T00:32:03.124Z,37.97
2019-04-21T00:34:17.838Z,39.87
2019-04-21T00:36:59.659Z,45.63
2019-04-21T00:42:09.799Z,47.53
2019-04-21T00:44:33.024Z,44.07
2019-04-21T00:47:13.971Z,35.47
2019-04-21T00:49:54.928Z,43.23
2019-04-21T00:53:03.547Z,35.30
2019-04-21T00:55:38.628Z,38.47
2019-04-21T00:58:10.493Z,36.40
2019-04-21T01:00:42.944Z,38.30
2019-04-21T01:03:14.681Z,38.83
2019-04-21T01:05:47.246Z,48.07
2019-04-21T01:08:15.818Z,56.87
2019-04-21T01:10:40.932Z,45.80
2019-04-21T01:13:21.710Z,41.13
2019-04-21T01:15:53.053Z,42.30
2019-04-21T01:18:20.980Z,37.23
2019-04-21T01:20:33.894Z,34.83
2019-04-21T01:23:04.336Z,35.80
2019-04-21T01:25:41.512Z,37.50
2019-04-21T01:28:24.600Z,34.97
2019-04-21T01:30:57.287Z,40.83
2019-04-21T01:33:34.904Z,30.03
2019-04-21T01:35:58.385Z,34.10
2019-04-21T01:38:44.340Z,43.73
2019-04-21T01:41:11.346Z,30.77
2019-04-21T01:43:33.718Z,38.07
2019-04-21T01:46:10.709Z,33.10
2019-04-21T01:48:37.483Z,39.13
2019-04-21T01:51:08.533Z,39.27
2019-04-21T01:54:03.553Z,50.43
2019-04-21T01:56:40.183Z,44.90
2019-04-21T01:59:01.541Z,51.77
2019-04-21T02:01:46.105Z,51.00
2019-04-21T02:04:24.562Z,38.17
2019-04-21T02:06:50.388Z,40.37
2019-04-21T02:09:23.203Z,43.10
2019-04-21T02:11:54.838Z,51.33
2019-04-21T02:14:31.156Z,35.10
2019-04-21T02:16:59.309Z,38.43
2019-04-21T02:19:26.636Z,45.27
2019-04-21T02:21:55.292Z,41.10
2019-04-21T02:24:45.154Z,51.20
2019-04-21T02:27:07.101Z,54.80
2019-04-21T02:29:40.892Z,45.43
2019-04-21T02:32:21.707Z,56.23
2019-04-21T02:39:57.389Z,41.33
2019-04-21T02:42:32.898Z,46.07
2019-04-21T02:50:09.569Z,39.97
2019-04-21T02:52:39.292Z,28.03
2019-04-21T02:55:15.618Z,32.63
2019-04-21T02:57:41.526Z,35.07
2019-04-21T03:00:13.647Z,37.63
2019-04-21T03:06:24.931Z,41.17
2019-04-21T03:08:50.060Z,31.37
2019-04-21T03:11:11.918Z,42.53
2019-04-21T03:13:46.960Z,44.30
2019-04-21T03:23:54.105Z,57.67
2019-04-21T03:26:28.543Z,71.20
2019-04-21T03:28:56.297Z,65.67
2019-04-21T03:31:55.486Z,49.40
2019-04-21T03:36:47.690Z,44.93
2019-04-21T03:39:01.224Z,51.20
2019-04-21T03:41:37.762Z,35.67
2019-04-21T03:44:12.311Z,45.30
2019-04-21T03:46:41.886Z,44.33
2019-04-21T03:54:19.604Z,45.40
2019-04-21T03:59:14.250Z,43.67
2019-04-21T04:02:18.896Z,38.87
2019-04-21T04:05:08.155Z,31.67
2019-04-21T04:07:55.116Z,28.77
2019-04-21T04:12:46.969Z,53.53
2019-04-21T04:15:29.003Z,47.87
2019-04-21T04:17:46.768Z,46.97
2019-04-21T04:22:55.447Z,37.53
2019-04-21T04:25:25.355Z,45.97
2019-04-21T04:30:35.732Z,35.53
2019-04-21T04:32:56.637Z,51.97
2019-04-21T04:35:48.996Z,34.30
2019-04-21T04:38:08.623Z,33.77
2019-04-21T04:40:51.703Z,40.63
2019-04-21T04:45:54.059Z,44.90
2019-04-21T04:48:20.324Z,41.80
2019-04-21T04:50:55.487Z,37.30
2019-04-21T04:53:34.648Z,38.87
2019-04-21T04:56:00.912Z,39.03
2019-04-21T04:58:54.587Z,42.93
2019-04-21T05:01:21.642Z,37.33
2019-04-21T05:03:44.510Z,34.37
2019-04-21T05:09:14.794Z,26.97
2019-04-21T05:14:07.581Z,28.80
2019-04-21T05:19:20.227Z,28.93
2019-04-21T05:21:39.404Z,27.87
2019-04-21T05:24:01.351Z,25.50
2019-04-21T05:26:36.024Z,23.97
2019-04-21T05:29:01.975Z,23.13
2019-04-21T05:31:54.782Z,23.27
2019-04-21T05:34:26.850Z,25.40
2019-04-21T05:37:14.265Z,22.87
2019-04-21T05:39:52.287Z,20.40
2019-04-21T05:42:27.228Z,19.43
2019-04-21T05:45:12.711Z,19.37
2019-04-21T05:47:46.313Z,21.37
2019-04-21T05:50:16.592Z,22.13
2019-04-21T05:52:44.715Z,18.90
2019-04-21T05:55:34.085Z,18.87
2019-04-21T05:57:57.297Z,21.40
2019-04-21T06:00:52.919Z,23.47
2019-04-21T06:03:10.083Z,16.47
2019-04-21T06:05:53.439Z,21.20
2019-04-21T06:08:13.217Z,20.80
2019-04-21T06:10:47.506Z,23.40
2019-04-21T06:13:24.398Z,26.10
2019-04-21T06:15:54.774Z,23.40
2019-04-21T06:18:20.186Z,18.63
2019-04-21T06:20:55.113Z,17.10
2019-04-21T06:23:27.049Z,14.73
2019-04-21T06:26:14.840Z,16.87
2019-04-21T06:28:31.775Z,15.13
2019-04-21T06:33:36.064Z,16.87
2019-04-21T06:44:01.425Z,14.23
2019-04-21T06:49:02.617Z,13.43
2019-04-21T06:51:48.202Z,13.27
2019-04-21T06:54:09.535Z,16.00
2019-04-21T06:56:40.971Z,17.00
2019-04-21T06:59:09.639Z,12.07
2019-04-21T07:04:31.227Z,11.37
2019-04-21T07:06:52.049Z,14.83
2019-04-21T07:09:26.673Z,15.87
2019-04-21T07:11:53.843Z,31.27
2019-04-21T07:14:32.085Z,11.17
2019-04-21T07:17:09.419Z,12.50
2019-04-21T07:19:34.710Z,12.90
2019-04-21T07:22:03.182Z,10.87
2019-04-21T07:24:37.298Z,14.23
2019-04-21T07:27:10.209Z,10.73
2019-04-21T07:29:50.626Z,12.13
2019-04-21T07:32:12.425Z,9.10
2019-04-21T07:34:49.847Z,11.27
2019-04-21T07:37:12.572Z,9.40
2019-04-21T07:39:43.939Z,9.13
2019-04-21T07:42:13.371Z,9.13
2019-04-21T07:44:45.959Z,5.40
2019-04-21T07:47:26.488Z,5.90
2019-04-21T07:50:14.362Z,6.43
2019-04-21T07:53:07.025Z,5.87
2019-04-21T07:58:11.173Z,5.90
2019-04-21T08:00:51.200Z,8.77
2019-04-21T08:03:14.233Z,5.20
2019-04-21T08:05:45.758Z,8.23
2019-04-21T08:08:12.083Z,5.43
2019-04-21T08:10:47.085Z,7.23
2019-04-21T08:13:28.927Z,7.10
2019-04-21T08:15:52.993Z,4.57
2019-04-21T08:18:28.314Z,13.43
2019-04-21T08:20:53.438Z,6.93
2019-04-21T08:23:31.751Z,8.63
2019-04-21T08:26:06.099Z,4.17
2019-04-21T08:28:31.942Z,8.23
2019-04-21T08:31:10.277Z,5.30
2019-04-21T08:33:47.082Z,5.63
2019-04-21T08:36:19.309Z,3.97
2019-04-21T08:38:46.002Z,7.20
2019-04-21T08:41:17.055Z,3.27
2019-04-21T08:46:20.152Z,5.50
2019-04-21T08:48:52.802Z,5.22
2019-04-21T08:51:28.931Z,3.97
2019-04-21T08:53:53.564Z,5.67
2019-04-21T08:56:30.409Z,7.17
2019-04-21T08:59:31.478Z,8.15
2019-04-21T09:02:06.271Z,5.23
2019-04-21T09:04:33.945Z,4.50
2019-04-21T09:07:12.946Z,4.53
2019-04-21T09:09:41.629Z,3.65
2019-04-21T09:12:15.065Z,5.58
2019-04-21T09:14:51.244Z,4.50
2019-04-21T09:17:16.387Z,13.22
2019-04-21T09:22:28.335Z,4.25
2019-04-21T09:24:56.017Z,3.12
2019-04-21T09:27:27.864Z,4.70
2019-04-21T09:29:51.662Z,6.03
2019-04-21T09:32:20.255Z,5.22
2019-04-21T09:34:49.275Z,3.75
2019-04-21T09:37:36.705Z,7.58
2019-04-21T09:39:55.177Z,3.15
2019-04-21T09:42:33.290Z,8.80
2019-04-21T09:44:59.459Z,5.45
2019-04-21T09:47:37.472Z,5.05
2019-04-21T09:50:01.872Z,3.25
2019-04-21T09:52:40.884Z,3.02
2019-04-21T09:55:10.087Z,2.30
2019-04-21T09:57:43.277Z,2.87
2019-04-21T10:00:18.257Z,3.63
2019-04-21T10:02:51.610Z,9.80
2019-04-21T10:05:14.542Z,5.72
2019-04-21T10:07:44.762Z,3.90
2019-04-21T10:10:15.263Z,5.22
2019-04-21T10:12:45.513Z,3.25
2019-04-21T10:15:16.571Z,3.55
2019-04-21T10:18:00.553Z,7.83
2019-04-21T10:20:30.960Z,2.85
2019-04-21T10:23:01.064Z,8.23
2019-04-21T10:25:32.398Z,4.58
2019-04-21T10:28:03.326Z,4.12
2019-04-21T10:30:34.762Z,3.65
2019-04-21T10:33:06.157Z,3.70
2019-04-21T10:35:37.046Z,5.35
2019-04-21T10:38:20.080Z,6.80
2019-04-21T10:40:41.255Z,4.30
2019-04-21T10:43:13.734Z,5.70
2019-04-21T10:45:43.505Z,3.95
2019-04-21T10:48:14.694Z,4.08
2019-04-21T10:50:45.409Z,5.22
2019-04-21T10:53:23.014Z,2.65
2019-04-21T10:56:06.406Z,2.72
2019-04-21T10:58:32.032Z,4.78
2019-04-21T11:01:08.448Z,2.55
2019-04-21T11:03:44.631Z,4.30
2019-04-21T11:06:18.778Z,3.30
2019-04-21T11:08:53.899Z,3.00
2019-04-21T11:11:23.916Z,2.22
2019-04-21T11:13:54.848Z,2.60
2019-04-21T11:16:26.982Z,2.85
2019-04-21T11:18:57.939Z,4.05
2019-04-21T11:21:29.213Z,4.40
2019-04-21T11:23:59.398Z,5.75
2019-04-21T11:26:29.920Z,2.65
2019-04-21T11:29:01.089Z,4.53
2019-04-21T11:31:31.369Z,6.50
2019-04-21T11:34:01.521Z,3.08
2019-04-21T11:36:31.686Z,4.25
2019-04-21T11:39:30.739Z,2.98
2019-04-21T11:41:51.989Z,3.92
2019-04-21T11:44:24.615Z,3.00
2019-04-21T11:46:56.380Z,2.65
2019-04-21T11:49:31.982Z,4.40
2019-04-21T11:52:00.783Z,3.20
2019-04-21T11:54:31.094Z,2.60
2019-04-21T11:57:11.801Z,4.03
2019-04-21T11:59:35.622Z,3.25
2019-04-21T12:02:07.722Z,3.10
2019-04-21T12:04:39.295Z,2.72
2019-04-21T12:07:09.566Z,2.25
2019-04-21T12:09:39.802Z,1.60
2019-04-21T12:12:10.032Z,3.95
2019-04-21T12:14:40.187Z,2.55
2019-04-21T12:17:10.357Z,2.42
2019-04-21T12:19:40.890Z,2.40
2019-04-21T12:22:20.192Z,6.67
2019-04-21T12:24:43.176Z,3.70
2019-04-21T12:27:14.055Z,3.47
2019-04-21T12:29:44.301Z,1.72
2019-04-21T12:32:33.868Z,2.72
2019-04-21T12:35:06.006Z,5.75
2019-04-21T12:37:42.819Z,7.40
2019-04-21T12:40:14.763Z,6.85
2019-04-21T12:42:45.522Z,2.47
2019-04-21T12:45:17.297Z,2.87
2019-04-21T12:47:57.959Z,1.77
2019-04-21T12:50:27.792Z,2.83
2019-04-21T12:52:58.025Z,2.95
2019-04-21T12:55:36.631Z,4.70
2019-04-21T12:58:03.479Z,2.85
2019-04-21T13:00:33.805Z,2.40
2019-04-21T13:03:04.052Z,1.95
2019-04-21T13:05:39.868Z,2.05
2019-04-21T13:08:09.353Z,2.33
2019-04-21T13:10:40.202Z,2.33
2019-04-21T13:13:10.452Z,2.12
2019-04-21T13:15:40.631Z,2.60
2019-04-21T13:18:12.230Z,4.40
2019-04-21T13:20:42.571Z,3.42
2019-04-21T13:23:13.840Z,4.97
2019-04-21T13:25:44.012Z,2.58
2019-04-21T13:28:14.651Z,11.15
2019-04-21T13:30:46.300Z,4.95
2019-04-21T13:33:16.464Z,3.20
2019-04-21T13:35:50.950Z,2.40
2019-04-21T13:38:32.610Z,2.20
2019-04-21T13:41:17.484Z,3.20
2019-04-21T13:43:37.137Z,3.77
2019-04-21T13:46:08.060Z,2.50
2019-04-21T13:48:38.331Z,5.75
2019-04-21T13:51:09.122Z,2.05
2019-04-21T13:53:41.789Z,4.83
2019-04-21T13:56:11.993Z,4.20
2019-04-21T13:58:42.310Z,4.33
2019-04-21T14:01:13.737Z,2.95
2019-04-21T14:03:44.118Z,1.82
2019-04-21T14:06:14.221Z,3.22
2019-04-21T14:08:45.373Z,3.27
2019-04-21T14:11:17.535Z,4.10
2019-04-21T14:13:48.268Z,3.92
2019-04-21T14:16:18.512Z,3.42
2019-04-21T14:18:49.616Z,9.60
2019-04-21T14:21:23.126Z,4.85
2019-04-21T14:23:53.925Z,8.88
2019-04-21T14:26:26.817Z,4.25
2019-04-21T14:28:57.046Z,5.60
2019-04-21T14:31:28.430Z,8.23
2019-04-21T14:34:00.166Z,2.50
2019-04-21T14:36:39.762Z,2.33
2019-04-21T14:39:24.488Z,2.45
2019-04-21T14:42:15.913Z,2.25
2019-04-21T14:45:30.691Z,13.88
2019-04-21T14:48:48.791Z,4.22
2019-04-21T15:02:03.913Z,2.42
2019-04-21T15:07:33.003Z,1.50
2019-04-21T15:10:36.810Z,3.05
2019-04-21T15:13:17.350Z,5.67
2019-04-21T15:13:35.557Z,10.05
2019-04-21T15:16:29.071Z,2.70
2019-04-21T15:19:20.449Z,4.33
2019-04-21T15:22:06.221Z,2.25
2019-04-21T15:24:38.295Z,2.52
2019-04-21T15:41:26.856Z,5.22
2019-04-21T15:47:04.034Z,2.10
2019-04-21T15:50:30.290Z,3.05
2019-04-21T15:56:40.432Z,2.95
2019-04-21T16:02:42.536Z,2.42
2019-04-21T16:05:16.920Z,8.40
2019-04-21T16:07:56.200Z,5.55
2019-04-21T16:10:43.426Z,1.72
2019-04-21T16:13:09.682Z,2.20
2019-04-21T16:18:34.235Z,4.40
2019-04-21T16:21:06.039Z,3.35
2019-04-21T16:23:40.510Z,3.60
2019-04-21T16:26:10.905Z,6.20
2019-04-21T16:28:41.681Z,3.40
2019-04-21T16:31:12.353Z,6.50
2019-04-21T16:33:43.222Z,5.17
2019-04-21T16:36:15.071Z,5.65
2019-04-21T16:38:49.368Z,4.63
2019-04-21T16:41:20.308Z,5.95
2019-04-21T16:43:51.379Z,7.87
2019-04-21T16:46:21.677Z,8.00
2019-04-21T16:48:53.749Z,13.10
2019-04-21T16:51:24.250Z,9.47
2019-04-21T16:54:01.915Z,6.30
2019-04-21T16:56:47.841Z,10.27
2019-04-21T16:59:26.464Z,6.37
2019-04-21T17:01:58.731Z,8.87
2019-04-21T17:04:36.210Z,6.73
2019-04-21T17:07:26.231Z,6.30
2019-04-21T17:09:56.843Z,9.57
2019-04-21T17:12:30.661Z,6.07
2019-04-21T17:15:18.737Z,7.93
2019-04-21T17:17:54.345Z,8.37
2019-04-21T17:20:21.551Z,8.17
2019-04-21T17:22:39.560Z,7.40
2019-04-21T17:25:10.841Z,11.97
2019-04-21T17:27:41.197Z,6.37
2019-04-21T17:30:12.930Z,7.77
2019-04-21T17:32:48.400Z,8.17
2019-04-21T18:18:05.182Z,5.50
2019-04-21T18:36:06.674Z,5.93
2019-04-21T18:43:35.638Z,6.40
2019-04-21T18:53:36.506Z,7.77
2019-04-21T18:57:49.924Z,9.37
2019-04-21T19:00:32.747Z,8.80
2019-04-21T19:03:39.880Z,5.80
2019-04-21T19:06:10.841Z,5.60
2019-04-21T19:08:59.223Z,6.17
2019-04-21T19:11:28.579Z,6.40
2019-04-21T19:14:28.494Z,5.10
2019-04-21T19:16:53.886Z,7.23
2019-04-21T19:21:58.711Z,4.80
2019-04-21T19:24:30.596Z,8.10
2019-04-21T19:27:03.203Z,6.57
2019-04-21T19:29:28.736Z,9.77
2019-04-21T19:32:03.983Z,7.83
2019-04-21T19:34:22.368Z,8.40
2019-04-21T19:36:52.004Z,11.43
2019-04-21T19:39:36.420Z,9.00
2019-04-21T19:42:00.308Z,8.47
2019-04-21T19:44:38.209Z,7.63
2019-04-21T19:47:10.532Z,7.90
2019-04-21T19:49:49.623Z,8.87
2019-04-21T19:52:05.279Z,12.33
2019-04-21T19:54:36.338Z,8.37
2019-04-21T19:57:02.892Z,6.80
2019-04-21T19:59:41.740Z,5.80
2019-04-21T20:02:06.935Z,8.30
2019-04-21T20:04:43.970Z,10.20
2019-04-21T20:07:24.398Z,7.97
2019-04-21T20:10:05.172Z,8.83
2019-04-21T20:12:36.926Z,7.03
2019-04-21T20:15:14.846Z,8.10
2019-04-21T20:17:34.786Z,6.77
2019-04-21T20:19:50.110Z,8.00
2019-04-21T20:22:23.995Z,9.63
2019-04-21T20:25:01.467Z,8.63
2019-04-21T20:27:36.236Z,12.20
2019-04-21T20:30:15.164Z,12.80
2019-04-21T20:32:49.108Z,8.97
2019-04-21T20:35:23.062Z,7.47
2019-04-21T20:37:47.712Z,8.30
2019-04-21T20:40:19.611Z,9.77
2019-04-21T20:42:50.961Z,7.90
2019-04-21T20:47:48.800Z,8.43
2019-04-21T20:50:29.849Z,10.07
2019-04-21T20:53:05.977Z,13.20
2019-04-21T20:55:35.404Z,9.00
2019-04-21T20:58:04.257Z,17.47
2019-04-21T21:00:54.503Z,8.37
2019-04-21T21:03:20.988Z,11.00
2019-04-21T21:05:42.426Z,11.03
2019-04-21T21:08:26.036Z,9.07
2019-04-21T21:10:53.247Z,6.37
2019-04-21T21:13:31.121Z,8.77
2019-04-21T21:16:11.929Z,9.73
2019-04-21T21:18:48.143Z,7.80
2019-04-21T21:21:04.857Z,8.57
2019-04-21T21:23:37.150Z,9.53
2019-04-21T21:26:11.471Z,9.00
2019-04-21T21:28:37.227Z,11.50
2019-04-21T21:31:13.216Z,8.10
2019-04-21T21:33:54.233Z,8.70
2019-04-21T21:36:28.612Z,9.43
2019-04-21T21:38:55.971Z,8.87
2019-04-21T21:41:13.821Z,8.47
2019-04-21T21:43:37.772Z,11.63
2019-04-21T21:46:26.646Z,9.60
2019-04-21T21:48:51.703Z,8.90
2019-04-21T21:51:20.455Z,11.43
2019-04-21T21:53:45.697Z,9.40
2019-04-21T21:56:26.864Z,8.83
2019-04-21T21:59:01.157Z,12.67
2019-04-21T22:01:38.002Z,11.60
2019-04-21T22:04:12.700Z,8.67
2019-04-21T22:06:44.653Z,8.40
2019-04-21T22:09:10.501Z,13.33
2019-04-21T22:11:42.218Z,8.40
2019-04-21T22:14:23.041Z,10.87
2019-04-21T22:17:06.186Z,7.77
2019-04-21T22:19:48.607Z,9.17
2019-04-21T22:22:09.598Z,7.10
2019-04-21T22:24:39.905Z,10.70
2019-04-21T22:26:55.322Z,8.17
2019-04-21T22:29:48.142Z,10.33
2019-04-21T22:32:20.892Z,9.80
2019-04-21T22:34:54.680Z,8.83
2019-04-21T22:37:35.024Z,15.00
2019-04-21T22:40:04.467Z,7.73
2019-04-21T22:42:32.064Z,10.53
2019-04-21T22:44:56.546Z,9.03
2019-04-21T22:47:32.619Z,9.30
2019-04-21T22:49:58.945Z,7.83
2019-04-21T22:52:30.478Z,10.77
2019-04-21T22:55:08.525Z,10.97
2019-04-21T22:57:41.696Z,11.50
2019-04-21T23:00:10.749Z,8.77
2019-04-21T23:02:39.292Z,8.17
2019-04-21T23:05:11.114Z,9.27
2019-04-21T23:07:51.228Z,10.37
2019-04-21T23:10:13.657Z,8.77
2019-04-21T23:12:44.016Z,6.60
2019-04-21T23:15:19.050Z,10.30
2019-04-21T23:18:06.496Z,12.10
2019-04-21T23:20:38.744Z,9.57
2019-04-21T23:23:11.886Z,12.07
2019-04-21T23:25:40.556Z,9.07
2019-04-21T23:28:10.119Z,8.77
2019-04-21T23:30:50.089Z,10.60
2019-04-21T23:33:06.062Z,11.33
2019-04-21T23:35:36.759Z,9.43
2019-04-21T23:38:05.370Z,8.43
2019-04-21T23:40:35.214Z,11.53
2019-04-21T23:43:09.576Z,9.10
2019-04-21T23:45:40.906Z,9.87
2019-04-21T23:48:23.554Z,8.60
2019-04-21T23:50:50.455Z,9.07
2019-04-21T23:53:13.266Z,10.27
2019-04-21T23:55:43.446Z,17.70
2019-04-21T23:58:21.604Z,10.93
